Time,TemperatureF,DewpointF,PressureIn,WindDirection,WindDirectionDegrees,WindSpeedMPH,WindSpeedGustMPH,Humidity,HourlyPrecipIn,Conditions,Clouds,dailyrainin,SoftwareType,DateUTC
2013-01-30 00:08:00,72.7,70.0,29.71,South,183,16.0,22.0,92,0.00,,,0.00,weatherlink.com 1.10,2013-01-30 06:08:00,
2013-01-30 00:23:00,72.6,70.0,29.70,South,173,7.0,21.0,92,0.00,,,0.00,weatherlink.com 1.10,2013-01-30 06:23:00,
2013-01-30 00:38:00,72.5,70.0,29.69,SSE,159,11.0,21.0,92,0.00,,,0.00,weatherlink.com 1.10,2013-01-30 06:38:00,
2013-01-30 00:53:00,72.5,70.0,29.69,South,175,11.0,23.0,92,0.00,,,0.00,weatherlink.com 1.10,2013-01-30 06:53:00,
2013-01-30 01:08:00,72.6,70.0,29.68,South,182,12.0,24.0,92,0.00,,,0.00,weatherlink.com 1.10,2013-01-30 07:08:00,
2013-01-30 01:23:00,72.6,70.0,29.68,SSW,193,15.0,22.0,91,0.00,,,0.00,weatherlink.com 1.10,2013-01-30 07:23:00,
2013-01-30 01:38:00,72.6,70.0,29.68,South,182,6.0,20.0,92,0.00,,,0.00,weatherlink.com 1.10,2013-01-30 07:38:00,
2013-01-30 01:53:00,72.5,70.0,29.68,SSE,157,8.0,15.0,92,0.00,,,0.00,weatherlink.com 1.10,2013-01-30 07:53:00,
2013-01-30 02:08:00,72.6,70.0,29.69,South,185,7.0,13.0,92,0.00,,,0.00,weatherlink.com 1.10,2013-01-30 08:08:00,
2013-01-30 02:23:00,72.4,70.0,29.69,SSW,210,11.0,16.0,92,0.00,,,0.00,weatherlink.com 1.10,2013-01-30 08:23:00,
2013-01-30 02:38:00,72.3,70.0,29.68,South,180,8.0,14.0,93,0.00,,,0.00,weatherlink.com 1.10,2013-01-30 08:38:00,
2013-01-30 02:53:00,71.7,70.0,29.68,South,181,9.0,14.0,94,0.02,,,0.02,weatherlink.com 1.10,2013-01-30 08:53:00,
2013-01-30 03:08:00,71.4,70.0,29.67,WSW,247,5.0,13.0,96,0.07,,,0.07,weatherlink.com 1.10,2013-01-30 09:08:00,
2013-01-30 03:23:00,59.1,57.0,29.70,NW,306,10.0,22.0,92,0.14,,,0.14,weatherlink.com 1.10,2013-01-30 09:23:00,
2013-01-30 03:39:00,56.8,56.0,29.70,NW,304,4.0,17.0,96,0.44,,,0.44,weatherlink.com 1.10,2013-01-30 09:39:00,
2013-01-30 03:54:00,55.8,55.0,29.68,NW,304,8.0,17.0,96,0.50,,,0.52,weatherlink.com 1.10,2013-01-30 09:54:00,
2013-01-30 04:09:00,55.1,54.0,29.70,North,5,2.0,9.0,95,0.46,,,0.53,weatherlink.com 1.10,2013-01-30 10:09:00,
2013-01-30 04:24:00,55.0,54.0,29.69,NW,317,2.0,2.0,96,0.40,,,0.54,weatherlink.com 1.10,2013-01-30 10:24:00,
2013-01-30 04:39:00,55.2,54.0,29.69,NW,317,0.0,2.0,97,0.09,,,0.54,weatherlink.com 1.10,2013-01-30 10:39:00,
2013-01-30 04:54:00,55.3,55.0,29.71,NW,317,0.0,2.0,97,0.02,,,0.54,weatherlink.com 1.10,2013-01-30 10:54:00,
2013-01-30 05:09:00,55.2,54.0,29.71,WNW,286,2.0,3.0,97,0.01,,,0.54,weatherlink.com 1.10,2013-01-30 11:09:00,
2013-01-30 05:24:00,55.4,55.0,29.71,WNW,286,2.0,2.0,97,0.00,,,0.54,weatherlink.com 1.10,2013-01-30 11:24:00,
2013-01-30 05:39:00,55.8,55.0,29.71,ENE,57,1.0,2.0,97,0.00,,,0.54,weatherlink.com 1.10,2013-01-30 11:39:00,
2013-01-30 05:54:00,55.8,55.0,29.72,SE,131,1.0,3.0,97,0.00,,,0.54,weatherlink.com 1.10,2013-01-30 11:54:00,
2013-01-30 06:09:00,56.0,55.0,29.72,SE,131,0.0,2.0,97,0.00,,,0.54,weatherlink.com 1.10,2013-01-30 12:09:00,
2013-01-30 06:24:00,56.0,55.0,29.72,SE,131,0.0,0.0,97,0.00,,,0.54,weatherlink.com 1.10,2013-01-30 12:24:00,
2013-01-30 06:39:00,56.4,56.0,29.73,SSW,209,2.0,3.0,97,0.00,,,0.54,weatherlink.com 1.10,2013-01-30 12:39:00,
2013-01-30 06:54:00,56.4,55.0,29.74,SW,234,2.0,5.0,96,0.00,,,0.54,weatherlink.com 1.10,2013-01-30 12:54:00,
2013-01-30 07:09:00,56.7,56.0,29.74,WSW,257,3.0,4.0,96,0.00,,,0.54,weatherlink.com 1.10,2013-01-30 13:09:00,
2013-01-30 07:24:00,57.3,56.0,29.74,West,270,5.0,6.0,94,0.00,,,0.54,weatherlink.com 1.10,2013-01-30 13:24:00,
2013-01-30 07:39:00,58.0,55.0,29.75,West,277,6.0,12.0,89,0.00,,,0.54,weatherlink.com 1.10,2013-01-30 13:39:00,
2013-01-30 07:54:00,58.4,54.0,29.76,West,271,7.0,13.0,86,0.00,,,0.54,weatherlink.com 1.10,2013-01-30 13:54:00,
2013-01-30 08:09:00,58.1,52.0,29.77,WNW,298,6.0,15.0,81,0.00,,,0.54,weatherlink.com 1.10,2013-01-30 14:09:00,
2013-01-30 08:24:00,58.2,51.0,29.77,WNW,284,16.0,16.0,78,0.00,,,0.54,weatherlink.com 1.10,2013-01-30 14:24:00,
2013-01-30 08:39:00,57.8,51.0,29.79,West,278,5.0,13.0,77,0.00,,,0.54,weatherlink.com 1.10,2013-01-30 14:39:00,
2013-01-30 08:54:00,57.8,51.0,29.80,WNW,285,8.0,13.0,78,0.00,,,0.54,weatherlink.com 1.10,2013-01-30 14:54:00,
2013-01-30 09:09:00,57.5,49.0,29.80,West,266,8.0,13.0,74,0.00,,,0.54,weatherlink.com 1.10,2013-01-30 15:09:00,
2013-01-30 09:24:00,57.1,46.0,29.82,WNW,293,13.0,17.0,66,0.00,,,0.54,weatherlink.com 1.10,2013-01-30 15:24:00,
2013-01-30 09:39:00,57.3,46.0,29.82,West,273,7.0,16.0,67,0.00,,,0.54,weatherlink.com 1.10,2013-01-30 15:39:00,
2013-01-30 09:54:00,57.7,45.0,29.83,WNW,284,9.0,16.0,62,0.00,,,0.54,weatherlink.com 1.10,2013-01-30 15:54:00,
2013-01-30 10:09:00,58.4,43.0,29.82,WNW,297,9.0,16.0,58,0.00,,,0.54,weatherlink.com 1.10,2013-01-30 16:09:00,
2013-01-30 10:24:00,57.7,42.0,29.83,West,279,11.0,18.0,57,0.00,,,0.54,weatherlink.com 1.10,2013-01-30 16:24:00,
2013-01-30 10:39:00,57.8,40.0,29.84,WNW,294,10.0,19.0,52,0.00,,,0.54,weatherlink.com 1.10,2013-01-30 16:39:00,
2013-01-30 10:54:00,57.9,38.0,29.84,WNW,285,10.0,21.0,48,0.00,,,0.54,weatherlink.com 1.10,2013-01-30 16:54:00,
2013-01-30 11:09:00,58.6,41.0,29.85,WNW,287,7.0,16.0,52,0.00,,,0.54,weatherlink.com 1.10,2013-01-30 17:09:00,
2013-01-30 11:24:00,58.8,38.0,29.85,West,277,13.0,19.0,47,0.00,,,0.54,weatherlink.com 1.10,2013-01-30 17:24:00,
2013-01-30 11:39:00,58.5,36.0,29.85,West,265,16.0,23.0,44,0.00,,,0.54,weatherlink.com 1.10,2013-01-30 17:39:00,
2013-01-30 11:54:00,58.4,37.0,29.86,WNW,296,13.0,20.0,45,0.00,,,0.54,weatherlink.com 1.10,2013-01-30 17:54:00,
2013-01-30 12:09:00,58.2,36.0,29.86,NW,317,13.0,22.0,43,0.00,,,0.54,weatherlink.com 1.10,2013-01-30 18:09:00,
2013-01-30 12:24:00,58.5,38.0,29.86,WNW,290,9.0,20.0,47,0.00,,,0.54,weatherlink.com 1.10,2013-01-30 18:24:00,
2013-01-30 12:39:00,58.7,37.0,29.86,WNW,288,9.0,20.0,44,0.00,,,0.54,weatherlink.com 1.10,2013-01-30 18:39:00,
2013-01-30 12:54:00,59.6,37.0,29.86,WNW,284,13.0,21.0,44,0.00,,,0.54,weatherlink.com 1.10,2013-01-30 18:54:00,
2013-01-30 13:10:00,58.9,36.0,29.86,WNW,300,9.0,22.0,43,0.00,,,0.54,weatherlink.com 1.10,2013-01-30 19:10:00,
2013-01-30 13:25:00,59.8,38.0,29.87,West,271,11.0,25.0,44,0.00,,,0.54,weatherlink.com 1.10,2013-01-30 19:25:00,
2013-01-30 13:40:00,61.2,41.0,29.87,WNW,303,10.0,18.0,47,0.00,,,0.54,weatherlink.com 1.10,2013-01-30 19:40:00,
2013-01-30 13:55:00,61.4,40.0,29.87,NW,307,11.0,25.0,45,0.00,,,0.54,weatherlink.com 1.10,2013-01-30 19:55:00,
2013-01-30 14:10:00,61.2,40.0,29.88,WNW,302,13.0,22.0,45,0.00,,,0.54,weatherlink.com 1.10,2013-01-30 20:10:00,
2013-01-30 14:25:00,59.3,38.0,29.88,West,271,14.0,25.0,45,0.00,,,0.54,weatherlink.com 1.10,2013-01-30 20:25:00,
2013-01-30 14:40:00,59.4,40.0,29.89,West,271,7.0,22.0,49,0.00,,,0.54,weatherlink.com 1.10,2013-01-30 20:40:00,
2013-01-30 14:55:00,60.1,40.0,29.90,WNW,301,15.0,29.0,47,0.00,,,0.54,weatherlink.com 1.10,2013-01-30 20:55:00,
2013-01-30 15:10:00,59.8,39.0,29.90,NW,317,13.0,23.0,47,0.00,,,0.54,weatherlink.com 1.10,2013-01-30 21:10:00,
2013-01-30 15:25:00,59.7,39.0,29.92,WNW,299,12.0,23.0,47,0.00,,,0.54,weatherlink.com 1.10,2013-01-30 21:25:00,
2013-01-30 15:40:00,58.9,39.0,29.92,NW,310,14.0,27.0,48,0.00,,,0.54,weatherlink.com 1.10,2013-01-30 21:40:00,
2013-01-30 15:55:00,58.6,38.0,29.93,NNW,331,12.0,23.0,47,0.00,,,0.54,weatherlink.com 1.10,2013-01-30 21:55:00,
2013-01-30 16:10:00,58.0,37.0,29.93,WNW,298,17.0,25.0,46,0.00,,,0.54,weatherlink.com 1.10,2013-01-30 22:10:00,
2013-01-30 16:25:00,57.9,36.0,29.94,NW,305,14.0,26.0,45,0.00,,,0.54,weatherlink.com 1.10,2013-01-30 22:25:00,
2013-01-30 16:40:00,57.3,36.0,29.95,NW,323,13.0,20.0,46,0.00,,,0.54,weatherlink.com 1.10,2013-01-30 22:40:00,
2013-01-30 16:55:00,56.6,35.0,29.97,NW,309,12.0,18.0,44,0.00,,,0.54,weatherlink.com 1.10,2013-01-30 22:55:00,
2013-01-30 17:10:00,55.2,34.0,29.97,NW,325,11.0,20.0,45,0.00,,,0.54,weatherlink.com 1.10,2013-01-30 23:10:00,
2013-01-30 17:25:00,54.2,35.0,29.98,North,5,5.0,18.0,49,0.00,,,0.54,weatherlink.com 1.10,2013-01-30 23:25:00,
2013-01-30 17:40:00,53.1,36.0,29.99,NW,307,7.0,13.0,53,0.00,,,0.54,weatherlink.com 1.10,2013-01-30 23:40:00,
2013-01-30 17:55:00,52.2,36.0,30.01,NW,321,8.0,14.0,54,0.00,,,0.54,weatherlink.com 1.10,2013-01-30 23:55:00,
2013-01-30 18:10:00,51.4,36.0,30.03,WNW,298,6.0,12.0,55,0.00,,,0.54,weatherlink.com 1.10,2013-01-31 00:10:00,
2013-01-30 18:25:00,51.1,34.0,30.04,NW,306,8.0,20.0,52,0.00,,,0.54,weatherlink.com 1.10,2013-01-31 00:25:00,
2013-01-30 18:40:00,50.4,35.0,30.05,NW,320,5.0,12.0,55,0.00,,,0.54,weatherlink.com 1.10,2013-01-31 00:40:00,
2013-01-30 18:55:00,49.7,35.0,30.06,NW,318,3.0,9.0,57,0.00,,,0.54,weatherlink.com 1.10,2013-01-31 00:55:00,
2013-01-30 19:10:00,49.0,35.0,30.07,NW,315,3.0,8.0,58,0.00,,,0.54,weatherlink.com 1.10,2013-01-31 01:10:00,
2013-01-30 19:25:00,48.8,34.0,30.07,NNW,329,4.0,6.0,58,0.00,,,0.54,weatherlink.com 1.10,2013-01-31 01:25:00,
2013-01-30 19:40:00,48.2,35.0,30.07,NW,322,0.0,4.0,60,0.00,,,0.54,weatherlink.com 1.10,2013-01-31 01:40:00,
2013-01-30 19:56:00,47.4,35.0,30.09,NW,322,0.0,1.0,63,0.00,,,0.54,weatherlink.com 1.10,2013-01-31 01:56:00,
2013-01-30 20:11:00,46.2,36.0,30.10,NW,322,0.0,0.0,68,0.00,,,0.54,weatherlink.com 1.10,2013-01-31 02:11:00,
2013-01-30 20:26:00,44.9,36.0,30.11,NW,322,0.0,1.0,72,0.00,,,0.54,weatherlink.com 1.10,2013-01-31 02:26:00,
2013-01-30 20:41:00,43.9,36.0,30.12,NW,322,0.0,0.0,75,0.00,,,0.54,weatherlink.com 1.10,2013-01-31 02:41:00,
2013-01-30 20:56:00,43.1,37.0,30.13,NW,322,0.0,0.0,80,0.00,,,0.54,weatherlink.com 1.10,2013-01-31 02:56:00,
2013-01-30 21:11:00,42.0,37.0,30.12,NW,322,0.0,0.0,83,0.00,,,0.54,weatherlink.com 1.10,2013-01-31 03:11:00,
2013-01-30 21:26:00,41.4,37.0,30.13,NW,322,0.0,0.0,84,0.00,,,0.54,weatherlink.com 1.10,2013-01-31 03:26:00,
2013-01-30 21:41:00,41.1,37.0,30.15,NW,322,0.0,0.0,85,0.00,,,0.54,weatherlink.com 1.10,2013-01-31 03:41:00,
2013-01-30 21:56:00,40.7,37.0,30.15,NW,322,0.0,0.0,86,0.00,,,0.54,weatherlink.com 1.10,2013-01-31 03:56:00,
2013-01-30 22:11:00,40.2,36.0,30.16,NW,322,0.0,0.0,86,0.00,,,0.54,weatherlink.com 1.10,2013-01-31 04:11:00,
2013-01-30 22:26:00,39.7,37.0,30.16,NW,322,0.0,0.0,88,0.00,,,0.54,weatherlink.com 1.10,2013-01-31 04:26:00,
2013-01-30 22:41:00,39.2,37.0,30.17,NW,322,0.0,0.0,90,0.00,,,0.54,weatherlink.com 1.10,2013-01-31 04:41:00,
2013-01-30 22:56:00,38.9,37.0,30.17,NW,322,0.0,0.0,91,0.00,,,0.54,weatherlink.com 1.10,2013-01-31 04:56:00,
2013-01-30 23:11:00,38.9,37.0,30.18,NW,322,0.0,0.0,92,0.00,,,0.54,weatherlink.com 1.10,2013-01-31 05:11:00,
2013-01-30 23:26:00,38.5,36.0,30.19,NW,322,0.0,0.0,91,0.00,,,0.54,weatherlink.com 1.10,2013-01-31 05:26:00,
2013-01-30 23:41:00,38.1,36.0,30.18,NW,322,0.0,0.0,92,0.00,,,0.54,weatherlink.com 1.10,2013-01-31 05:41:00,
2013-01-30 23:56:00,37.9,36.0,30.19,NW,322,0.0,0.0,93,0.00,,,0.54,weatherlink.com 1.10,2013-01-31 05:56:00,